WIF7MY ENBR-EGPD
Flight info
| Callsign | WIF7MY |
|---|---|
| Flight time | 1h 0m |
| Altitude | 24000 |
| Route | EPOTU DCT BEREP DCT ADN |
| Aircraft | DH8D/M-SDFGRY/SB1 |
Departure
| Time | 2026-04-29 16:43 |
|---|---|
| Airport | Bergen Airport, Flesland (ENBR) |
Arrival
| Time | 2026-04-29 17:44 |
|---|---|
| Airport | Aberdeen International Airport (EGPD) |
| Time | Latitude | Longitude | Altitude | Speed | Heading |
|---|---|---|---|---|---|
| 2026-04-29 16:11 | 60.28737 | 5.22896 | 170 ft | 0 kts | 80° |
| 2026-04-29 16:37 | 60.28737 | 5.22897 | 170 ft | 0 kts | 80° |
| 2026-04-29 16:37 | 60.28736 | 5.22879 | 171 ft | 2 kts | 82° |
| 2026-04-29 16:38 | 60.28733 | 5.22849 | 171 ft | 2 kts | 79° |
| 2026-04-29 16:38 | 60.28731 | 5.22822 | 170 ft | 0 kts | 80° |
| 2026-04-29 16:38 | 60.28731 | 5.22821 | 170 ft | 0 kts | 80° |
| 2026-04-29 16:40 | 60.28731 | 5.22837 | 171 ft | 0 kts | 107° |
| 2026-04-29 16:40 | 60.28713 | 5.22804 | 170 ft | 7 kts | 244° |
| 2026-04-29 16:41 | 60.28680 | 5.22708 | 169 ft | 8 kts | 248° |
| 2026-04-29 16:41 | 60.28665 | 5.22581 | 168 ft | 9 kts | 262° |
| 2026-04-29 16:41 | 60.28677 | 5.22454 | 167 ft | 8 kts | 290° |
| 2026-04-29 16:41 | 60.28675 | 5.22333 | 166 ft | 13 kts | 260° |
| 2026-04-29 16:42 | 60.28659 | 5.22129 | 163 ft | 12 kts | 260° |
| 2026-04-29 16:42 | 60.28665 | 5.22037 | 162 ft | 1 kts | 352° |
| 2026-04-29 16:42 | 60.28669 | 5.22036 | 162 ft | 0 kts | 350° |
| 2026-04-29 16:42 | 60.28830 | 5.21983 | 163 ft | 69 kts | 350° |
| 2026-04-29 16:43 | 60.29576 | 5.21734 | 160 ft | 142 kts | 351° |
| 2026-04-29 16:43 | 60.30628 | 5.21515 | 620 ft | 157 kts | 356° |
| 2026-04-29 16:43 | 60.31744 | 5.21443 | 1267 ft | 169 kts | 359° |
| 2026-04-29 16:43 | 60.32930 | 5.21441 | 1988 ft | 176 kts | 0° |
| 2026-04-29 16:44 | 60.34154 | 5.21494 | 2729 ft | 181 kts | 1° |
| 2026-04-29 16:44 | 60.35401 | 5.21468 | 3508 ft | 182 kts | 354° |
| 2026-04-29 16:44 | 60.36633 | 5.21155 | 4276 ft | 181 kts | 353° |
| 2026-04-29 16:44 | 60.37882 | 5.20850 | 4904 ft | 184 kts | 352° |
| 2026-04-29 16:45 | 60.39029 | 5.19860 | 5416 ft | 191 kts | 316° |
| 2026-04-29 16:45 | 60.39570 | 5.17262 | 5586 ft | 217 kts | 271° |
| 2026-04-29 16:45 | 60.39009 | 5.14388 | 6059 ft | 229 kts | 233° |
| 2026-04-29 16:45 | 60.37929 | 5.12008 | 6634 ft | 234 kts | 230° |
| 2026-04-29 16:46 | 60.36842 | 5.09573 | 7238 ft | 236 kts | 231° |
| 2026-04-29 16:46 | 60.35783 | 5.07090 | 7862 ft | 237 kts | 232° |
| 2026-04-29 16:46 | 60.34734 | 5.04539 | 8503 ft | 238 kts | 233° |
| 2026-04-29 16:46 | 60.33690 | 5.01926 | 9109 ft | 241 kts | 234° |
| 2026-04-29 16:47 | 60.32646 | 4.99260 | 9707 ft | 244 kts | 235° |
| 2026-04-29 16:47 | 60.31620 | 4.96598 | 10326 ft | 244 kts | 236° |
| 2026-04-29 16:47 | 60.30576 | 4.93864 | 10941 ft | 246 kts | 236° |
| 2026-04-29 16:47 | 60.29541 | 4.91132 | 11555 ft | 249 kts | 236° |
| 2026-04-29 16:48 | 60.28503 | 4.88378 | 12175 ft | 251 kts | 236° |
| 2026-04-29 16:48 | 60.27443 | 4.85557 | 12778 ft | 253 kts | 237° |
| 2026-04-29 16:48 | 60.26397 | 4.82764 | 13362 ft | 256 kts | 237° |
| 2026-04-29 16:48 | 60.25320 | 4.79886 | 13919 ft | 259 kts | 237° |
| 2026-04-29 16:49 | 60.24242 | 4.77007 | 14496 ft | 261 kts | 237° |
| 2026-04-29 16:49 | 60.23150 | 4.74089 | 15019 ft | 263 kts | 237° |
| 2026-04-29 16:49 | 60.22042 | 4.71131 | 15559 ft | 266 kts | 237° |
| 2026-04-29 16:49 | 60.20941 | 4.68192 | 16135 ft | 265 kts | 237° |
| 2026-04-29 16:50 | 60.19852 | 4.65293 | 16718 ft | 263 kts | 237° |
| 2026-04-29 16:50 | 60.18750 | 4.62356 | 17281 ft | 261 kts | 237° |
| 2026-04-29 16:50 | 60.17665 | 4.59469 | 17811 ft | 260 kts | 237° |
| 2026-04-29 16:50 | 60.16576 | 4.56573 | 18327 ft | 259 kts | 237° |
| 2026-04-29 16:51 | 60.15503 | 4.53722 | 18813 ft | 258 kts | 237° |
| 2026-04-29 16:51 | 60.14432 | 4.50878 | 19280 ft | 257 kts | 237° |
| 2026-04-29 16:51 | 60.13360 | 4.48036 | 19732 ft | 257 kts | 237° |
| 2026-04-29 16:51 | 60.12277 | 4.45168 | 20174 ft | 256 kts | 238° |
| 2026-04-29 16:52 | 60.11219 | 4.42368 | 20589 ft | 255 kts | 238° |
| 2026-04-29 16:52 | 60.10149 | 4.39540 | 20994 ft | 254 kts | 238° |
| 2026-04-29 16:52 | 60.09094 | 4.36755 | 21379 ft | 253 kts | 238° |
| 2026-04-29 16:52 | 60.08027 | 4.33943 | 21749 ft | 253 kts | 237° |
| 2026-04-29 16:53 | 60.06966 | 4.31150 | 22106 ft | 252 kts | 237° |
| 2026-04-29 16:53 | 60.05911 | 4.28375 | 22448 ft | 251 kts | 237° |
| 2026-04-29 16:53 | 60.04864 | 4.25624 | 22768 ft | 251 kts | 237° |
| 2026-04-29 16:53 | 60.03806 | 4.22848 | 23080 ft | 250 kts | 237° |
| 2026-04-29 16:54 | 60.02759 | 4.20104 | 23376 ft | 250 kts | 237° |
| 2026-04-29 16:54 | 60.01706 | 4.17347 | 23658 ft | 250 kts | 237° |
| 2026-04-29 16:54 | 60.00663 | 4.14618 | 23924 ft | 249 kts | 237° |
| 2026-04-29 16:54 | 59.99607 | 4.11861 | 24185 ft | 249 kts | 237° |
| 2026-04-29 16:55 | 59.98557 | 4.09122 | 24391 ft | 251 kts | 237° |
| 2026-04-29 16:55 | 59.97496 | 4.06350 | 24461 ft | 259 kts | 236° |
| 2026-04-29 16:55 | 59.96377 | 4.03433 | 24484 ft | 268 kts | 236° |
| 2026-04-29 16:55 | 59.95235 | 4.00462 | 24493 ft | 279 kts | 236° |
| 2026-04-29 16:56 | 59.94035 | 3.97344 | 24495 ft | 289 kts | 236° |
| 2026-04-29 16:56 | 59.92800 | 3.94144 | 24494 ft | 298 kts | 236° |
| 2026-04-29 16:56 | 59.91515 | 3.90819 | 24494 ft | 308 kts | 236° |
| 2026-04-29 16:56 | 59.90185 | 3.87385 | 24496 ft | 316 kts | 236° |
| 2026-04-29 16:57 | 59.88834 | 3.83903 | 24496 ft | 322 kts | 235° |
| 2026-04-29 16:57 | 59.87442 | 3.80321 | 24496 ft | 328 kts | 235° |
| 2026-04-29 16:57 | 59.86055 | 3.76756 | 24500 ft | 333 kts | 235° |
| 2026-04-29 16:57 | 59.84629 | 3.73095 | 24503 ft | 337 kts | 235° |
| 2026-04-29 16:58 | 59.83190 | 3.69409 | 24506 ft | 340 kts | 235° |
| 2026-04-29 16:58 | 59.81747 | 3.65714 | 24504 ft | 342 kts | 235° |
| 2026-04-29 16:58 | 59.80272 | 3.61947 | 24499 ft | 344 kts | 235° |
| 2026-04-29 16:58 | 59.78803 | 3.58199 | 24494 ft | 346 kts | 235° |
| 2026-04-29 16:59 | 59.77298 | 3.54365 | 24491 ft | 348 kts | 235° |
| 2026-04-29 16:59 | 59.75805 | 3.50567 | 24486 ft | 349 kts | 235° |
| 2026-04-29 16:59 | 59.74318 | 3.46794 | 24486 ft | 350 kts | 234° |
| 2026-04-29 16:59 | 59.72800 | 3.42945 | 24485 ft | 350 kts | 234° |
| 2026-04-29 17:00 | 59.71299 | 3.39146 | 24483 ft | 351 kts | 234° |
| 2026-04-29 17:00 | 59.69804 | 3.35365 | 24485 ft | 351 kts | 234° |
| 2026-04-29 17:00 | 59.68299 | 3.31569 | 24483 ft | 351 kts | 234° |
| 2026-04-29 17:00 | 59.66799 | 3.27788 | 24484 ft | 352 kts | 234° |
| 2026-04-29 17:01 | 59.65281 | 3.23968 | 24482 ft | 352 kts | 234° |
| 2026-04-29 17:01 | 59.63770 | 3.20176 | 24482 ft | 352 kts | 234° |
| 2026-04-29 17:01 | 59.62254 | 3.16375 | 24483 ft | 352 kts | 233° |
| 2026-04-29 17:01 | 59.60739 | 3.12582 | 24483 ft | 352 kts | 233° |
| 2026-04-29 17:02 | 59.59241 | 3.08837 | 24485 ft | 353 kts | 233° |
| 2026-04-29 17:02 | 59.57708 | 3.05010 | 24484 ft | 353 kts | 233° |
| 2026-04-29 17:02 | 59.56197 | 3.01249 | 24484 ft | 353 kts | 233° |
| 2026-04-29 17:02 | 59.54673 | 2.97456 | 24483 ft | 353 kts | 233° |
| 2026-04-29 17:03 | 59.53161 | 2.93703 | 24482 ft | 353 kts | 233° |
| 2026-04-29 17:03 | 59.51648 | 2.89949 | 24484 ft | 353 kts | 233° |
| 2026-04-29 17:03 | 59.50118 | 2.86163 | 24483 ft | 353 kts | 233° |
| 2026-04-29 17:03 | 59.48582 | 2.82368 | 24482 ft | 353 kts | 233° |
| 2026-04-29 17:04 | 59.47071 | 2.78641 | 24483 ft | 353 kts | 233° |
| 2026-04-29 17:04 | 59.45539 | 2.74865 | 24483 ft | 353 kts | 233° |
| 2026-04-29 17:04 | 59.44006 | 2.71096 | 24488 ft | 353 kts | 233° |
| 2026-04-29 17:04 | 59.42487 | 2.67367 | 24488 ft | 353 kts | 233° |
| 2026-04-29 17:05 | 59.40947 | 2.63591 | 24490 ft | 353 kts | 233° |
| 2026-04-29 17:05 | 59.39427 | 2.59871 | 24492 ft | 353 kts | 233° |
| 2026-04-29 17:05 | 59.37904 | 2.56148 | 24494 ft | 353 kts | 233° |
| 2026-04-29 17:05 | 59.36356 | 2.52370 | 24496 ft | 353 kts | 233° |
| 2026-04-29 17:06 | 59.34824 | 2.48638 | 24495 ft | 353 kts | 233° |
| 2026-04-29 17:06 | 59.33290 | 2.44908 | 24495 ft | 353 kts | 233° |
| 2026-04-29 17:06 | 59.31739 | 2.41143 | 24499 ft | 353 kts | 233° |
| 2026-04-29 17:06 | 59.30203 | 2.37419 | 24499 ft | 353 kts | 233° |
| 2026-04-29 17:07 | 59.28669 | 2.33707 | 24500 ft | 353 kts | 232° |
| 2026-04-29 17:07 | 59.27129 | 2.29985 | 24501 ft | 353 kts | 232° |
| 2026-04-29 17:07 | 59.25590 | 2.26272 | 24499 ft | 353 kts | 232° |
| 2026-04-29 17:07 | 59.24034 | 2.22525 | 24495 ft | 353 kts | 232° |
| 2026-04-29 17:08 | 59.22483 | 2.18795 | 24493 ft | 353 kts | 232° |
| 2026-04-29 17:08 | 59.20947 | 2.15107 | 24493 ft | 353 kts | 232° |
| 2026-04-29 17:08 | 59.19395 | 2.11386 | 24492 ft | 353 kts | 232° |
| 2026-04-29 17:08 | 59.17863 | 2.07719 | 24490 ft | 353 kts | 232° |
| 2026-04-29 17:09 | 59.16297 | 2.03975 | 24485 ft | 353 kts | 232° |
| 2026-04-29 17:09 | 59.14753 | 2.00291 | 24484 ft | 353 kts | 232° |
| 2026-04-29 17:09 | 59.13196 | 1.96583 | 24483 ft | 353 kts | 231° |
| 2026-04-29 17:09 | 59.11642 | 1.92888 | 24484 ft | 353 kts | 231° |
| 2026-04-29 17:10 | 59.09573 | 1.87974 | 24483 ft | 353 kts | 231° |
| 2026-04-29 17:10 | 59.08552 | 1.85556 | 24484 ft | 353 kts | 231° |
| 2026-04-29 17:10 | 59.06989 | 1.81856 | 24483 ft | 353 kts | 231° |
| 2026-04-29 17:10 | 59.05452 | 1.78222 | 24482 ft | 353 kts | 231° |
| 2026-04-29 17:11 | 59.03892 | 1.74542 | 24483 ft | 353 kts | 231° |
| 2026-04-29 17:11 | 59.02363 | 1.70853 | 24483 ft | 353 kts | 233° |
| 2026-04-29 17:11 | 59.00869 | 1.67067 | 24482 ft | 353 kts | 233° |
| 2026-04-29 17:11 | 58.99382 | 1.63288 | 24484 ft | 353 kts | 233° |
| 2026-04-29 17:12 | 58.97893 | 1.59516 | 24481 ft | 353 kts | 233° |
| 2026-04-29 17:12 | 58.96401 | 1.55750 | 24482 ft | 353 kts | 233° |
| 2026-04-29 17:12 | 58.94927 | 1.52038 | 24480 ft | 353 kts | 233° |
| 2026-04-29 17:12 | 58.93924 | 1.49518 | 24484 ft | 353 kts | 233° |
| 2026-04-29 17:13 | 58.91935 | 1.44531 | 24484 ft | 353 kts | 233° |
| 2026-04-29 17:13 | 58.90436 | 1.40784 | 24486 ft | 353 kts | 233° |
| 2026-04-29 17:13 | 58.88954 | 1.37086 | 24485 ft | 352 kts | 233° |
| 2026-04-29 17:13 | 58.87453 | 1.33345 | 24483 ft | 352 kts | 232° |
| 2026-04-29 17:14 | 58.85955 | 1.29619 | 24480 ft | 352 kts | 232° |
| 2026-04-29 17:14 | 58.84452 | 1.25886 | 24483 ft | 352 kts | 232° |
| 2026-04-29 17:14 | 58.82967 | 1.22205 | 24486 ft | 352 kts | 232° |
| 2026-04-29 17:14 | 58.81459 | 1.18476 | 24484 ft | 352 kts | 232° |
| 2026-04-29 17:15 | 58.79955 | 1.14759 | 24489 ft | 351 kts | 232° |
| 2026-04-29 17:15 | 58.78458 | 1.11066 | 24492 ft | 351 kts | 232° |
| 2026-04-29 17:15 | 58.76973 | 1.07410 | 24489 ft | 351 kts | 232° |
| 2026-04-29 17:15 | 58.75464 | 1.03699 | 24488 ft | 351 kts | 232° |
| 2026-04-29 17:16 | 58.73956 | 0.99997 | 24491 ft | 351 kts | 232° |
| 2026-04-29 17:16 | 58.72452 | 0.96313 | 24483 ft | 351 kts | 232° |
| 2026-04-29 17:16 | 58.70963 | 0.92669 | 24478 ft | 351 kts | 232° |
| 2026-04-29 17:16 | 58.69450 | 0.88973 | 24476 ft | 352 kts | 232° |
| 2026-04-29 17:17 | 58.67941 | 0.85289 | 24477 ft | 352 kts | 232° |
| 2026-04-29 17:17 | 58.66443 | 0.81642 | 24480 ft | 352 kts | 232° |
| 2026-04-29 17:17 | 58.64930 | 0.77963 | 24472 ft | 352 kts | 231° |
| 2026-04-29 17:17 | 58.63417 | 0.74288 | 24477 ft | 351 kts | 232° |
| 2026-04-29 17:18 | 58.61902 | 0.70616 | 24480 ft | 351 kts | 232° |
| 2026-04-29 17:18 | 58.60404 | 0.66990 | 24476 ft | 351 kts | 232° |
| 2026-04-29 17:18 | 58.58885 | 0.63319 | 24477 ft | 351 kts | 231° |
| 2026-04-29 17:18 | 58.57362 | 0.59645 | 24478 ft | 351 kts | 231° |
| 2026-04-29 17:19 | 58.55867 | 0.56044 | 24479 ft | 351 kts | 231° |
| 2026-04-29 17:19 | 58.54348 | 0.52389 | 24479 ft | 351 kts | 231° |
| 2026-04-29 17:19 | 58.52827 | 0.48734 | 24476 ft | 351 kts | 231° |
| 2026-04-29 17:19 | 58.51309 | 0.45095 | 24477 ft | 351 kts | 231° |
| 2026-04-29 17:20 | 58.49790 | 0.41456 | 24476 ft | 351 kts | 231° |
| 2026-04-29 17:20 | 58.48269 | 0.37821 | 24478 ft | 351 kts | 231° |
| 2026-04-29 17:20 | 58.46764 | 0.34230 | 24474 ft | 350 kts | 230° |
| 2026-04-29 17:20 | 58.45228 | 0.30568 | 24476 ft | 350 kts | 230° |
| 2026-04-29 17:21 | 58.43719 | 0.26976 | 24478 ft | 350 kts | 230° |
| 2026-04-29 17:21 | 58.42191 | 0.23345 | 24480 ft | 350 kts | 230° |
| 2026-04-29 17:21 | 58.40687 | 0.19778 | 24476 ft | 350 kts | 230° |
| 2026-04-29 17:21 | 58.39157 | 0.16153 | 24480 ft | 350 kts | 230° |
| 2026-04-29 17:22 | 58.37632 | 0.12546 | 24481 ft | 350 kts | 230° |
| 2026-04-29 17:22 | 58.36110 | 0.08952 | 24483 ft | 350 kts | 230° |
| 2026-04-29 17:22 | 58.34583 | 0.05353 | 24480 ft | 350 kts | 230° |
| 2026-04-29 17:22 | 58.33041 | 0.01723 | 24484 ft | 349 kts | 230° |
| 2026-04-29 17:23 | 58.31496 | -0.01912 | 24484 ft | 349 kts | 230° |
| 2026-04-29 17:23 | 58.29974 | -0.05482 | 24481 ft | 349 kts | 230° |
| 2026-04-29 17:23 | 58.28440 | -0.09078 | 24482 ft | 349 kts | 230° |
| 2026-04-29 17:23 | 58.26408 | -0.13833 | 24473 ft | 349 kts | 230° |
| 2026-04-29 17:24 | 58.25388 | -0.16216 | 24478 ft | 349 kts | 230° |
| 2026-04-29 17:24 | 58.23864 | -0.19772 | 24475 ft | 349 kts | 230° |
| 2026-04-29 17:24 | 58.22319 | -0.23369 | 24473 ft | 349 kts | 230° |
| 2026-04-29 17:24 | 58.20786 | -0.26936 | 24477 ft | 349 kts | 230° |
| 2026-04-29 17:25 | 58.19246 | -0.30514 | 24475 ft | 349 kts | 230° |
| 2026-04-29 17:25 | 58.17724 | -0.34043 | 24466 ft | 349 kts | 230° |
| 2026-04-29 17:25 | 58.16184 | -0.37610 | 24461 ft | 349 kts | 230° |
| 2026-04-29 17:25 | 58.14652 | -0.41151 | 24460 ft | 349 kts | 230° |
| 2026-04-29 17:26 | 58.13118 | -0.44690 | 24455 ft | 349 kts | 230° |
| 2026-04-29 17:26 | 58.11570 | -0.48260 | 24449 ft | 349 kts | 230° |
| 2026-04-29 17:26 | 58.10027 | -0.51810 | 24456 ft | 349 kts | 230° |
| 2026-04-29 17:26 | 58.08503 | -0.55314 | 24458 ft | 349 kts | 230° |
| 2026-04-29 17:27 | 58.06957 | -0.58860 | 24459 ft | 349 kts | 230° |
| 2026-04-29 17:27 | 58.05411 | -0.62404 | 24458 ft | 349 kts | 230° |
| 2026-04-29 17:27 | 58.03883 | -0.65900 | 24462 ft | 349 kts | 229° |
| 2026-04-29 17:27 | 58.01808 | -0.70636 | 24464 ft | 348 kts | 229° |
| 2026-04-29 17:28 | 58.00774 | -0.72996 | 24461 ft | 348 kts | 229° |
| 2026-04-29 17:28 | 57.99221 | -0.76532 | 24460 ft | 348 kts | 229° |
| 2026-04-29 17:28 | 57.97687 | -0.80022 | 24356 ft | 352 kts | 229° |
| 2026-04-29 17:28 | 57.96096 | -0.83633 | 23927 ft | 362 kts | 229° |
| 2026-04-29 17:29 | 57.94535 | -0.87166 | 23462 ft | 348 kts | 229° |
| 2026-04-29 17:29 | 57.93034 | -0.90650 | 22988 ft | 336 kts | 230° |
| 2026-04-29 17:29 | 57.91634 | -0.94048 | 22525 ft | 325 kts | 231° |
| 2026-04-29 17:29 | 57.90278 | -0.97350 | 22064 ft | 316 kts | 231° |
| 2026-04-29 17:30 | 57.88936 | -1.00625 | 21631 ft | 329 kts | 231° |
| 2026-04-29 17:30 | 57.87506 | -1.04126 | 21209 ft | 349 kts | 231° |
| 2026-04-29 17:30 | 57.85990 | -1.07827 | 20770 ft | 355 kts | 231° |
| 2026-04-29 17:30 | 57.84483 | -1.11492 | 20324 ft | 356 kts | 231° |
| 2026-04-29 17:31 | 57.82990 | -1.15116 | 19883 ft | 357 kts | 231° |
| 2026-04-29 17:31 | 57.81453 | -1.18843 | 19432 ft | 357 kts | 231° |
| 2026-04-29 17:31 | 57.79932 | -1.22522 | 18984 ft | 357 kts | 231° |
| 2026-04-29 17:31 | 57.78414 | -1.26192 | 18538 ft | 357 kts | 231° |
| 2026-04-29 17:32 | 57.76902 | -1.29839 | 18094 ft | 357 kts | 231° |
| 2026-04-29 17:32 | 57.75377 | -1.33513 | 17644 ft | 357 kts | 231° |
| 2026-04-29 17:32 | 57.73863 | -1.37157 | 17195 ft | 356 kts | 231° |
| 2026-04-29 17:32 | 57.72343 | -1.40807 | 16746 ft | 356 kts | 230° |
| 2026-04-29 17:33 | 57.70841 | -1.44410 | 16263 ft | 356 kts | 230° |
| 2026-04-29 17:33 | 57.69295 | -1.48110 | 15714 ft | 358 kts | 231° |
| 2026-04-29 17:33 | 57.67771 | -1.51753 | 15172 ft | 359 kts | 230° |
| 2026-04-29 17:33 | 57.66243 | -1.55404 | 14629 ft | 359 kts | 230° |
| 2026-04-29 17:34 | 57.64724 | -1.59025 | 14088 ft | 357 kts | 230° |
| 2026-04-29 17:34 | 57.63221 | -1.62603 | 13535 ft | 345 kts | 230° |
| 2026-04-29 17:34 | 57.61754 | -1.66079 | 12972 ft | 332 kts | 229° |
| 2026-04-29 17:34 | 57.60356 | -1.69391 | 12417 ft | 321 kts | 229° |
| 2026-04-29 17:35 | 57.58108 | -1.74709 | 11487 ft | 304 kts | 229° |
| 2026-04-29 17:35 | 57.56430 | -1.78668 | 10802 ft | 294 kts | 229° |
| 2026-04-29 17:35 | 57.55162 | -1.81659 | 10286 ft | 286 kts | 229° |
| 2026-04-29 17:36 | 57.53944 | -1.84527 | 9780 ft | 279 kts | 229° |
| 2026-04-29 17:36 | 57.52737 | -1.87370 | 9280 ft | 282 kts | 229° |
| 2026-04-29 17:36 | 57.51504 | -1.90278 | 8785 ft | 286 kts | 229° |
| 2026-04-29 17:36 | 57.50272 | -1.93175 | 8283 ft | 285 kts | 229° |
| 2026-04-29 17:37 | 57.49067 | -1.95994 | 7782 ft | 278 kts | 229° |
| 2026-04-29 17:37 | 57.47875 | -1.98780 | 7291 ft | 271 kts | 229° |
| 2026-04-29 17:37 | 57.46733 | -2.01445 | 6832 ft | 263 kts | 229° |
| 2026-04-29 17:37 | 57.45615 | -2.04055 | 6395 ft | 256 kts | 229° |
| 2026-04-29 17:38 | 57.44161 | -2.07445 | 5841 ft | 247 kts | 229° |
| 2026-04-29 17:38 | 57.43450 | -2.09100 | 5560 ft | 243 kts | 229° |
| 2026-04-29 17:38 | 57.42420 | -2.11497 | 5142 ft | 238 kts | 229° |
| 2026-04-29 17:38 | 57.41392 | -2.13887 | 4738 ft | 242 kts | 229° |
| 2026-04-29 17:39 | 57.40310 | -2.16416 | 4392 ft | 254 kts | 230° |
| 2026-04-29 17:39 | 57.39193 | -2.19021 | 4092 ft | 261 kts | 230° |
| 2026-04-29 17:39 | 57.38086 | -2.21597 | 3779 ft | 253 kts | 230° |
| 2026-04-29 17:39 | 57.36643 | -2.24946 | 3361 ft | 249 kts | 230° |
| 2026-04-29 17:40 | 57.35915 | -2.26633 | 3151 ft | 245 kts | 229° |
| 2026-04-29 17:40 | 57.34689 | -2.28546 | 2975 ft | 229 kts | 201° |
| 2026-04-29 17:40 | 57.33135 | -2.28625 | 2946 ft | 225 kts | 161° |
| 2026-04-29 17:40 | 57.31959 | -2.26869 | 2941 ft | 218 kts | 127° |
| 2026-04-29 17:41 | 57.30904 | -2.25036 | 2516 ft | 208 kts | 158° |
| 2026-04-29 17:41 | 57.29536 | -2.24999 | 1947 ft | 197 kts | 199° |
| 2026-04-29 17:41 | 57.28354 | -2.25897 | 1676 ft | 169 kts | 187° |
| 2026-04-29 17:41 | 57.27000 | -2.25125 | 1534 ft | 155 kts | 152° |
| 2026-04-29 17:42 | 57.26379 | -2.24491 | 1369 ft | 147 kts | 154° |
| 2026-04-29 17:42 | 57.25493 | -2.23754 | 1165 ft | 135 kts | 159° |
| 2026-04-29 17:42 | 57.24657 | -2.23120 | 988 ft | 124 kts | 158° |
| 2026-04-29 17:42 | 57.23873 | -2.22522 | 845 ft | 119 kts | 160° |
| 2026-04-29 17:43 | 57.23113 | -2.21965 | 709 ft | 120 kts | 160° |
| 2026-04-29 17:43 | 57.22318 | -2.21371 | 552 ft | 126 kts | 159° |
| 2026-04-29 17:43 | 57.21493 | -2.20744 | 381 ft | 128 kts | 158° |
| 2026-04-29 17:43 | 57.20687 | -2.20136 | 233 ft | 121 kts | 159° |
| 2026-04-29 17:44 | 57.20043 | -2.19669 | 225 ft | 63 kts | 159° |
| 2026-04-29 17:44 | 57.19758 | -2.19463 | 225 ft | 44 kts | 159° |
| 2026-04-29 17:44 | 57.19525 | -2.19287 | 225 ft | 22 kts | 158° |
| 2026-04-29 17:44 | 57.19442 | -2.19264 | 225 ft | 9 kts | 220° |
| 2026-04-29 17:45 | 57.19442 | -2.19390 | 225 ft | 12 kts | 321° |
| 2026-04-29 17:45 | 57.19538 | -2.19543 | 225 ft | 22 kts | 319° |
| 2026-04-29 17:45 | 57.19686 | -2.19729 | 225 ft | 25 kts | 340° |
| 2026-04-29 17:45 | 57.19846 | -2.19847 | 225 ft | 23 kts | 336° |
| 2026-04-29 17:46 | 57.19961 | -2.20034 | 225 ft | 21 kts | 315° |
| 2026-04-29 17:46 | 57.20047 | -2.20116 | 225 ft | 7 kts | 316° |
| 2026-04-29 17:46 | 57.20035 | -2.20198 | 225 ft | 4 kts | 251° |
| 2026-04-29 17:46 | 57.20031 | -2.20216 | 225 ft | 0 kts | 248° |